Accueil
METAR-TAF:

METAR-TAF

Aéroports :

Aéroport du Frioul-Vénétie julienne

Trieste / Ronchi dei Legionari, Italie

latitude: 45-49N, longitude: 013-29E, altitude: 12 m

Observation

Le bulletin a été fait il y a 24 minutes, à 19:50 UTC
Vent 7 kt de est/nord-est
Température 6°C
Humidité 39%
Pression 1024 hPa
Visibilité 10 km ou plus

METAR: LIPQ 311950Z AUTO 07007KT 9999 NCD 06/M07 Q1024

Heure: 22:14 (20:14 UTC)

Prévision

Le bulletin a été fait il y a 9 heures et 14 minutes, à 11:00 UTC
Prévision valable du 31 à 12 UTC au 01 à 12 UTC
Vent 7 kt de est
Visibilité 10 km ou plus
pas de nuages en-dessous de 1500 mètres et pas de cumulonimbus.

TAF: LIPQ 311100Z 3112/0112 08007KT CAVOK

Observations et prévisions météorologiques de plus de 4000 aéroports (messages METAR et TAF).

Les stations disponibles sont représentées par des disques jaunes et rouges sur la carte.

Passer la souris dessus pour voir le nom de la station.

Cliquer dessus pour voir les observations et prévisions météorologiques.

Pour changer de carte: cliquez sur les boutons verts avec une croix noire pour zoomer, sur le bouton vert avec un tiret pour effectuer un zoom arrière, ou sur les flèches vertes pour les cartes adjacentes.


METAR-TAF: